createdAt,value
2022-09-06T00:00:26.651Z,3.70
2022-09-06T00:02:54.442Z,3.87
2022-09-06T00:05:21.864Z,4.00
2022-09-06T00:07:48.720Z,4.80
2022-09-06T00:10:16.000Z,5.00
2022-09-06T00:12:43.009Z,5.67
2022-09-06T00:15:10.393Z,4.77
2022-09-06T00:17:37.384Z,4.37
2022-09-06T00:20:08.537Z,6.30
2022-09-06T00:22:36.644Z,5.77
2022-09-06T00:25:06.493Z,5.97
2022-09-06T00:27:34.478Z,5.53
2022-09-06T00:30:01.404Z,6.47
2022-09-06T00:32:28.539Z,4.87
2022-09-06T00:34:55.428Z,4.93
2022-09-06T00:37:22.253Z,3.93
2022-09-06T00:39:49.157Z,3.57
2022-09-06T00:42:16.079Z,3.83
2022-09-06T00:44:42.925Z,5.67
2022-09-06T00:47:09.830Z,5.57
2022-09-06T00:49:44.839Z,4.47
2022-09-06T00:52:15.762Z,4.97
2022-09-06T00:54:43.716Z,5.47
2022-09-06T00:57:11.782Z,5.90
2022-09-06T00:59:40.465Z,5.10
2022-09-06T01:02:09.342Z,4.70
2022-09-06T01:04:40.210Z,4.20
2022-09-06T01:07:35.510Z,5.23
2022-09-06T01:10:28.359Z,4.83
2022-09-06T01:13:36.885Z,5.43
2022-09-06T01:16:37.750Z,5.30
2022-09-06T01:19:36.063Z,3.97
2022-09-06T01:22:14.430Z,4.60
2022-09-06T01:25:03.886Z,4.13
2022-09-06T01:28:01.442Z,3.73
2022-09-06T01:30:28.926Z,4.53
2022-09-06T01:33:16.190Z,1.00
2022-09-06T01:36:04.949Z,2.93
2022-09-06T01:38:31.906Z,2.37
2022-09-06T01:40:58.759Z,2.23
2022-09-06T01:43:32.126Z,2.47
2022-09-06T01:46:25.891Z,2.00
2022-09-06T01:49:24.308Z,1.60
2022-09-06T01:52:09.561Z,2.60
2022-09-06T01:55:19.783Z,1.93
2022-09-06T01:58:15.430Z,0.97
2022-09-06T02:00:50.242Z,1.93
2022-09-06T02:03:28.788Z,2.60
2022-09-06T02:06:03.408Z,2.20
2022-09-06T02:08:41.084Z,2.23
2022-09-06T02:11:09.379Z,1.80
2022-09-06T02:13:49.839Z,1.90
2022-09-06T02:16:21.992Z,2.40
2022-09-06T02:18:56.115Z,2.20
2022-09-06T02:21:30.485Z,2.10
2022-09-06T02:24:01.114Z,2.00
2022-09-06T02:26:33.126Z,2.20
2022-09-06T02:29:00.410Z,2.20
2022-09-06T02:31:37.869Z,1.80
2022-09-06T02:34:05.810Z,2.00
2022-09-06T02:36:35.807Z,1.50
2022-09-06T02:39:02.913Z,1.80
2022-09-06T02:41:30.981Z,1.50
2022-09-06T02:43:57.922Z,1.70
2022-09-06T02:46:24.939Z,1.60
2022-09-06T02:48:52.299Z,1.67
2022-09-06T02:51:19.495Z,1.77
2022-09-06T02:53:46.762Z,1.40
2022-09-06T02:56:13.621Z,1.30
2022-09-06T02:58:40.484Z,1.60
2022-09-06T03:01:07.531Z,1.83
2022-09-06T03:03:34.621Z,2.07
2022-09-06T03:06:01.679Z,2.50
2022-09-06T03:08:33.328Z,2.20
2022-09-06T03:11:01.209Z,1.90
2022-09-06T03:13:28.735Z,1.70
2022-09-06T03:15:59.529Z,1.97
2022-09-06T03:18:29.167Z,1.77
2022-09-06T03:20:57.907Z,2.00
2022-09-06T03:23:27.818Z,2.00
2022-09-06T03:25:55.416Z,2.10
2022-09-06T03:28:23.108Z,1.80
2022-09-06T03:30:51.980Z,2.13
2022-09-06T03:33:20.414Z,2.40
2022-09-06T03:36:03.079Z,2.10
2022-09-06T03:38:30.757Z,2.00
2022-09-06T03:40:58.592Z,2.47
2022-09-06T03:43:27.323Z,2.40
2022-09-06T03:45:57.571Z,2.80
2022-09-06T03:48:28.633Z,2.40
2022-09-06T03:50:58.776Z,3.27
2022-09-06T03:53:27.943Z,2.90
2022-09-06T03:55:58.078Z,2.90
2022-09-06T03:58:30.181Z,2.87
2022-09-06T04:01:07.656Z,2.93
2022-09-06T04:03:35.624Z,3.17
2022-09-06T04:06:03.825Z,3.30
2022-09-06T04:08:31.839Z,2.70
2022-09-06T04:10:59.562Z,3.23
2022-09-06T04:13:28.678Z,2.70
2022-09-06T04:15:55.803Z,3.10
2022-09-06T04:18:23.497Z,2.80
2022-09-06T04:20:53.154Z,2.97
2022-09-06T04:23:20.680Z,2.83
2022-09-06T04:25:53.177Z,2.67
2022-09-06T04:28:21.618Z,2.90
2022-09-06T04:31:04.951Z,2.80
2022-09-06T04:33:35.304Z,3.23
2022-09-06T04:36:05.669Z,2.73
2022-09-06T04:38:39.928Z,2.90
2022-09-06T04:41:08.307Z,2.87
2022-09-06T04:43:35.517Z,2.80
2022-09-06T04:46:29.941Z,2.33
2022-09-06T04:48:58.221Z,2.50
2022-09-06T04:51:25.620Z,2.93
2022-09-06T04:53:52.883Z,2.50
2022-09-06T04:56:22.405Z,2.40
2022-09-06T04:58:51.178Z,1.90
2022-09-06T05:01:18.594Z,2.57
2022-09-06T05:03:45.491Z,1.83
2022-09-06T05:06:24.006Z,1.70
2022-09-06T05:08:51.588Z,2.40
2022-09-06T05:11:19.642Z,2.13
2022-09-06T05:13:47.532Z,2.00
2022-09-06T05:16:14.530Z,2.50
2022-09-06T05:18:42.352Z,2.20
2022-09-06T05:21:09.400Z,2.07
2022-09-06T05:23:36.617Z,2.53
2022-09-06T05:26:03.632Z,2.67
2022-09-06T05:28:30.773Z,3.00
2022-09-06T05:31:08.126Z,2.40
2022-09-06T05:33:35.039Z,2.60
2022-09-06T05:36:03.754Z,2.33
2022-09-06T05:38:30.904Z,2.90
2022-09-06T05:40:58.057Z,2.83
2022-09-06T05:43:24.951Z,2.73
2022-09-06T05:45:51.942Z,2.27
2022-09-06T05:48:19.342Z,2.70
2022-09-06T05:50:46.286Z,2.60
2022-09-06T05:53:13.112Z,2.50
2022-09-06T05:55:42.885Z,2.60
2022-09-06T05:58:10.075Z,2.67
2022-09-06T06:00:36.911Z,2.90
2022-09-06T06:03:03.740Z,2.70
2022-09-06T06:05:30.578Z,2.80
2022-09-06T06:07:58.870Z,2.67
2022-09-06T06:10:25.859Z,2.67
2022-09-06T06:12:52.689Z,3.07
2022-09-06T06:15:19.542Z,3.67
2022-09-06T06:17:46.419Z,3.37
2022-09-06T06:20:13.268Z,2.87
2022-09-06T06:22:40.157Z,3.37
2022-09-06T06:25:07.479Z,3.70
2022-09-06T06:27:35.308Z,3.10
2022-09-06T06:30:02.159Z,2.83
2022-09-06T06:32:29.050Z,3.33
2022-09-06T06:34:55.901Z,3.10
2022-09-06T06:37:22.845Z,3.30
2022-09-06T06:39:49.782Z,3.17
2022-09-06T06:42:16.754Z,4.10
2022-09-06T06:44:43.668Z,3.70
2022-09-06T06:47:10.583Z,4.40
2022-09-06T06:49:37.447Z,4.13
2022-09-06T06:52:04.328Z,3.37
2022-09-06T06:54:31.205Z,4.03
2022-09-06T06:56:58.060Z,3.60
2022-09-06T06:59:24.949Z,4.10
2022-09-06T07:01:52.400Z,3.93
2022-09-06T07:04:19.364Z,3.20
2022-09-06T07:12:30.274Z,5.20
2022-09-06T07:14:57.138Z,5.60
2022-09-06T07:17:23.982Z,3.30
2022-09-06T07:22:39.205Z,3.57
2022-09-06T07:25:07.429Z,3.00
2022-09-06T07:27:50.325Z,3.40
2022-09-06T07:30:19.756Z,3.40
2022-09-06T07:32:46.830Z,3.37
2022-09-06T07:35:13.924Z,3.30
2022-09-06T07:37:40.938Z,3.20
2022-09-06T07:40:08.932Z,3.90
2022-09-06T07:42:36.809Z,3.63
2022-09-06T07:45:05.354Z,3.20
2022-09-06T07:53:10.160Z,3.53
2022-09-06T07:55:40.927Z,3.30
2022-09-06T07:58:07.788Z,3.40
2022-09-06T08:00:34.725Z,3.50
2022-09-06T08:03:01.626Z,3.20
2022-09-06T08:11:02.665Z,3.13
2022-09-06T08:13:29.807Z,3.60
2022-09-06T08:16:08.001Z,3.50
2022-09-06T08:18:36.239Z,3.70
2022-09-06T08:21:12.835Z,3.20
2022-09-06T08:23:51.728Z,3.53
2022-09-06T08:26:23.540Z,3.97
2022-09-06T08:29:00.205Z,3.73
2022-09-06T08:31:29.599Z,2.83
2022-09-06T08:33:58.198Z,3.17
2022-09-06T08:36:29.442Z,3.40
2022-09-06T08:38:57.926Z,3.50
2022-09-06T08:41:45.005Z,3.60
2022-09-06T08:47:13.361Z,3.60
2022-09-06T08:49:46.085Z,3.13
2022-09-06T08:52:41.756Z,3.37
2022-09-06T08:55:39.575Z,2.97
2022-09-06T08:59:09.088Z,3.33
2022-09-06T09:02:10.429Z,3.33
2022-09-06T09:04:54.392Z,3.20
2022-09-06T09:07:47.956Z,3.20
2022-09-06T09:10:21.512Z,3.03
2022-09-06T09:12:49.805Z,3.37
2022-09-06T09:15:20.596Z,3.00
2022-09-06T09:17:50.495Z,3.27
2022-09-06T09:20:17.549Z,3.30
2022-09-06T09:22:45.131Z,3.27
2022-09-06T09:25:23.768Z,2.93
2022-09-06T09:27:57.797Z,3.17
2022-09-06T09:33:29.804Z,3.00
2022-09-06T09:36:01.772Z,2.90
2022-09-06T09:38:34.930Z,3.23
2022-09-06T09:41:07.668Z,3.10
2022-09-06T09:43:42.575Z,3.10
2022-09-06T09:46:24.380Z,2.60
2022-09-06T09:49:22.352Z,2.97
2022-09-06T09:52:13.211Z,3.37
2022-09-06T09:54:44.853Z,3.03
2022-09-06T09:57:17.831Z,3.03
2022-09-06T09:59:50.598Z,2.97
2022-09-06T10:02:30.880Z,3.13
2022-09-06T10:05:17.512Z,2.93
2022-09-06T10:07:55.049Z,3.37
2022-09-06T10:10:32.821Z,3.23
2022-09-06T10:13:24.277Z,3.43
2022-09-06T10:15:54.083Z,3.20
2022-09-06T10:18:20.858Z,2.87
2022-09-06T10:20:56.042Z,2.70
2022-09-06T10:27:04.367Z,3.33
2022-09-06T10:29:39.886Z,3.10
2022-09-06T10:32:39.221Z,3.20
2022-09-06T10:35:26.795Z,3.70
2022-09-06T10:38:05.482Z,3.80
2022-09-06T10:41:03.354Z,3.97
2022-09-06T10:44:08.383Z,4.07
2022-09-06T10:46:36.651Z,3.60
2022-09-06T10:49:03.570Z,3.07
2022-09-06T10:51:50.062Z,3.83
2022-09-06T10:54:24.450Z,3.60
2022-09-06T10:56:58.854Z,3.53
2022-09-06T10:59:38.777Z,3.63
2022-09-06T11:02:38.317Z,4.00
2022-09-06T11:11:14.195Z,4.03
2022-09-06T11:13:41.079Z,4.30
2022-09-06T11:16:23.039Z,4.70
2022-09-06T11:19:07.840Z,3.83
2022-09-06T11:22:10.230Z,4.17
2022-09-06T11:24:58.123Z,4.20
2022-09-06T11:27:30.836Z,3.87
2022-09-06T11:30:00.796Z,4.50
2022-09-06T11:32:48.754Z,4.73
2022-09-06T11:35:34.865Z,4.20
2022-09-06T11:38:23.735Z,4.10
2022-09-06T11:41:01.768Z,4.20
2022-09-06T11:43:52.789Z,3.60
2022-09-06T11:46:34.991Z,3.57
2022-09-06T11:49:07.758Z,3.70
2022-09-06T11:51:41.870Z,4.27
2022-09-06T11:54:25.211Z,3.60
2022-09-06T11:57:13.553Z,3.93
2022-09-06T11:59:56.235Z,3.47
2022-09-06T12:02:41.333Z,3.90
2022-09-06T12:05:20.710Z,4.70
2022-09-06T12:08:24.639Z,4.10
2022-09-06T12:11:22.761Z,3.50
2022-09-06T12:14:34.163Z,4.53
2022-09-06T12:17:00.927Z,3.80
2022-09-06T12:19:49.952Z,4.97
2022-09-06T12:22:37.642Z,4.00
2022-09-06T12:25:40.998Z,3.27
2022-09-06T12:28:27.055Z,4.60
2022-09-06T12:30:54.083Z,3.30
2022-09-06T12:33:38.766Z,2.83
2022-09-06T12:36:22.627Z,3.47
2022-09-06T12:39:12.028Z,4.10
2022-09-06T12:41:45.589Z,3.20
2022-09-06T12:44:15.283Z,3.43
2022-09-06T12:46:50.688Z,2.93
2022-09-06T12:49:23.448Z,3.17
2022-09-06T12:51:50.862Z,3.37
2022-09-06T12:54:26.525Z,4.00
2022-09-06T12:57:12.350Z,3.40
2022-09-06T12:59:57.190Z,3.80
2022-09-06T13:02:41.283Z,3.27
2022-09-06T13:05:12.351Z,3.70
2022-09-06T13:07:50.112Z,2.93
2022-09-06T13:10:19.872Z,3.00
2022-09-06T13:12:50.423Z,3.77
2022-09-06T13:15:29.015Z,4.17
2022-09-06T13:18:36.405Z,3.60
2022-09-06T13:21:15.733Z,3.03
2022-09-06T13:23:47.515Z,3.50
2022-09-06T13:26:14.997Z,3.20
2022-09-06T13:28:41.969Z,3.67
2022-09-06T13:31:18.057Z,2.90
2022-09-06T13:33:46.441Z,3.00
2022-09-06T13:36:32.014Z,3.30
2022-09-06T13:39:00.062Z,2.97
2022-09-06T13:41:26.804Z,3.20
2022-09-06T13:44:19.835Z,3.00
2022-09-06T13:46:46.980Z,3.40
2022-09-06T13:49:14.448Z,2.63
2022-09-06T13:51:43.303Z,2.50
2022-09-06T13:54:14.104Z,2.30
2022-09-06T13:56:44.526Z,2.77
2022-09-06T13:59:12.283Z,2.20
2022-09-06T14:01:42.307Z,1.97
2022-09-06T14:04:13.699Z,2.43
2022-09-06T14:06:40.637Z,2.10
2022-09-06T14:09:09.010Z,2.93
2022-09-06T14:11:37.099Z,2.83
2022-09-06T14:14:05.162Z,2.73
2022-09-06T14:16:34.074Z,2.50
2022-09-06T14:19:00.949Z,2.77
2022-09-06T14:21:27.849Z,2.00
2022-09-06T14:23:54.743Z,1.90
2022-09-06T14:26:23.043Z,2.47
2022-09-06T14:28:50.526Z,1.97
2022-09-06T14:31:25.922Z,2.00
2022-09-06T14:33:55.057Z,2.70
2022-09-06T14:36:26.227Z,1.97
2022-09-06T14:38:53.830Z,1.80
2022-09-06T14:41:21.065Z,1.63
2022-09-06T14:43:51.688Z,2.00
2022-09-06T14:46:20.098Z,2.00
2022-09-06T14:48:47.157Z,2.00
2022-09-06T14:51:23.792Z,2.03
2022-09-06T14:54:02.485Z,2.20
2022-09-06T14:56:30.284Z,2.33
2022-09-06T14:58:57.829Z,2.33
2022-09-06T15:01:31.898Z,2.00
2022-09-06T15:04:04.086Z,2.70
2022-09-06T15:06:34.774Z,2.50
2022-09-06T15:09:01.626Z,1.73
2022-09-06T15:11:39.291Z,2.00
2022-09-06T15:14:13.438Z,1.90
2022-09-06T15:16:40.342Z,2.50
2022-09-06T15:19:08.784Z,2.40
2022-09-06T15:21:35.923Z,2.43
2022-09-06T15:24:03.247Z,2.27
2022-09-06T15:26:30.867Z,2.27
2022-09-06T15:28:57.742Z,2.10
2022-09-06T15:31:25.053Z,2.30
2022-09-06T15:33:52.834Z,2.47
2022-09-06T15:36:21.793Z,1.77
2022-09-06T15:38:52.260Z,1.90
2022-09-06T15:41:26.246Z,1.77
2022-09-06T15:44:00.738Z,2.00
2022-09-06T15:46:38.320Z,1.50
2022-09-06T15:49:08.350Z,1.90
2022-09-06T15:51:37.813Z,2.17
2022-09-06T15:54:06.859Z,2.13
2022-09-06T15:56:34.935Z,2.30
2022-09-06T15:59:01.985Z,1.80
2022-09-06T16:01:29.029Z,1.40
2022-09-06T16:04:03.706Z,1.50
2022-09-06T16:06:37.544Z,1.77
2022-09-06T16:09:10.834Z,1.50
2022-09-06T16:11:37.964Z,1.90
2022-09-06T16:14:07.207Z,1.70
2022-09-06T16:16:35.789Z,2.00
2022-09-06T16:19:03.788Z,2.00
2022-09-06T16:21:34.228Z,2.03
2022-09-06T16:24:05.069Z,2.20
2022-09-06T16:26:39.241Z,2.10
2022-09-06T16:29:08.170Z,2.13
2022-09-06T16:31:40.028Z,2.10
2022-09-06T16:34:09.782Z,2.27
2022-09-06T16:36:37.146Z,2.27
2022-09-06T16:39:05.479Z,2.70
2022-09-06T16:41:42.542Z,2.70
2022-09-06T16:44:16.046Z,2.70
2022-09-06T16:46:48.538Z,2.23
2022-09-06T16:49:18.992Z,2.33
2022-09-06T16:51:47.834Z,2.87
2022-09-06T16:54:15.827Z,3.03
2022-09-06T16:56:43.414Z,9.47
2022-09-06T16:59:12.200Z,4.80
2022-09-06T17:01:41.854Z,3.33
2022-09-06T17:04:09.678Z,2.80
2022-09-06T17:06:44.018Z,3.10
2022-09-06T17:09:13.558Z,2.17
2022-09-06T17:11:40.508Z,2.20
2022-09-06T17:14:08.344Z,2.10
2022-09-06T17:16:53.818Z,2.37
2022-09-06T17:19:21.004Z,2.70
2022-09-06T17:21:47.913Z,2.47
2022-09-06T17:24:15.453Z,2.60
2022-09-06T17:26:42.486Z,2.67
2022-09-06T17:29:10.383Z,2.60
2022-09-06T17:31:38.193Z,2.47
2022-09-06T17:34:07.762Z,2.47
2022-09-06T17:36:35.574Z,2.77
2022-09-06T17:39:06.814Z,3.10
2022-09-06T17:41:43.174Z,2.60
2022-09-06T17:44:11.283Z,3.80
2022-09-06T17:46:47.755Z,3.40
2022-09-06T17:49:24.587Z,3.93
2022-09-06T17:51:52.046Z,3.17
2022-09-06T17:54:19.219Z,2.73
2022-09-06T17:56:46.231Z,2.97
2022-09-06T17:59:15.445Z,3.20
2022-09-06T18:01:44.630Z,3.10
2022-09-06T18:04:13.597Z,2.73
2022-09-06T18:06:43.208Z,3.27
2022-09-06T18:09:14.782Z,3.73
2022-09-06T18:11:45.509Z,3.40
2022-09-06T18:14:20.547Z,3.13
2022-09-06T18:16:50.425Z,2.23
2022-09-06T18:19:18.049Z,2.23
2022-09-06T18:21:47.373Z,2.10
2022-09-06T18:24:14.996Z,1.67
2022-09-06T18:26:42.997Z,2.40
2022-09-06T18:29:16.532Z,1.73
2022-09-06T18:31:44.317Z,1.87
2022-09-06T18:34:12.334Z,2.60
2022-09-06T18:36:39.932Z,1.77
2022-09-06T18:39:07.105Z,2.20
2022-09-06T18:41:52.919Z,1.90
2022-09-06T18:44:19.859Z,2.10
2022-09-06T18:46:47.475Z,1.90
2022-09-06T18:49:15.488Z,2.77
2022-09-06T18:51:43.311Z,2.33
2022-09-06T18:54:10.867Z,2.70
2022-09-06T18:56:38.419Z,2.50
2022-09-06T18:59:05.996Z,4.20
2022-09-06T19:01:34.868Z,4.07
2022-09-06T19:04:03.402Z,3.00
2022-09-06T19:06:32.604Z,2.50
2022-09-06T19:09:05.024Z,2.33
2022-09-06T19:11:31.924Z,2.20
2022-09-06T19:13:59.211Z,2.13
2022-09-06T19:16:28.556Z,2.40
2022-09-06T19:18:56.874Z,1.80
2022-09-06T19:21:25.469Z,2.07
2022-09-06T19:24:07.995Z,2.20
2022-09-06T19:26:38.573Z,2.03
2022-09-06T19:29:09.136Z,2.50
2022-09-06T19:31:37.992Z,1.97
2022-09-06T19:34:05.511Z,2.00
2022-09-06T19:36:32.873Z,2.30
2022-09-06T19:39:07.511Z,2.40
2022-09-06T19:41:39.081Z,5.23
2022-09-06T19:44:08.473Z,2.30
2022-09-06T19:46:36.439Z,2.10
2022-09-06T19:49:04.912Z,2.57
2022-09-06T19:51:33.042Z,2.27
2022-09-06T19:54:00.408Z,2.27
2022-09-06T19:56:34.229Z,2.10
2022-09-06T19:59:05.060Z,2.73
2022-09-06T20:01:33.754Z,2.20
2022-09-06T20:04:03.695Z,2.50
2022-09-06T20:06:31.678Z,2.30
2022-09-06T20:09:00.367Z,2.20
2022-09-06T20:11:30.396Z,2.07
2022-09-06T20:13:57.647Z,2.40
2022-09-06T20:16:25.568Z,1.70
2022-09-06T20:18:54.877Z,2.30
2022-09-06T20:21:21.874Z,1.70
2022-09-06T20:23:54.514Z,2.03
2022-09-06T20:26:23.774Z,2.60
2022-09-06T20:28:59.676Z,2.27
2022-09-06T20:31:28.968Z,2.83
2022-09-06T20:33:57.964Z,2.23
2022-09-06T20:36:25.208Z,2.83
2022-09-06T20:38:52.218Z,2.57
2022-09-06T20:41:23.443Z,2.13
2022-09-06T20:43:53.368Z,2.30
2022-09-06T20:46:23.695Z,2.50
2022-09-06T20:48:51.796Z,2.50
2022-09-06T20:51:21.582Z,2.53
2022-09-06T20:53:56.428Z,2.17
2022-09-06T20:56:30.037Z,2.60
2022-09-06T20:59:00.664Z,2.30
2022-09-06T21:01:34.251Z,2.40
2022-09-06T21:04:03.484Z,2.23
2022-09-06T21:06:34.372Z,2.63
2022-09-06T21:09:06.777Z,2.50
2022-09-06T21:11:34.422Z,2.60
2022-09-06T21:14:01.621Z,2.30
2022-09-06T21:16:30.362Z,1.73
2022-09-06T21:19:03.697Z,2.20
2022-09-06T21:21:32.621Z,2.40
2022-09-06T21:24:05.371Z,2.43
2022-09-06T21:26:33.173Z,2.60
2022-09-06T21:29:00.456Z,2.63
2022-09-06T21:31:31.428Z,2.57
2022-09-06T21:34:03.311Z,2.60
2022-09-06T21:36:34.755Z,2.50
2022-09-06T21:39:12.741Z,2.60
2022-09-06T21:41:42.226Z,2.30
2022-09-06T21:44:10.484Z,2.30
2022-09-06T21:46:39.360Z,2.67
2022-09-06T21:49:12.912Z,2.60
2022-09-06T21:51:40.421Z,2.47
2022-09-06T21:54:07.563Z,2.83
2022-09-06T21:56:36.678Z,3.00
2022-09-06T21:59:04.848Z,2.80
2022-09-06T22:01:35.216Z,2.40
2022-09-06T22:04:03.433Z,2.63
2022-09-06T22:06:32.796Z,2.77
2022-09-06T22:09:02.780Z,2.73
2022-09-06T22:11:33.084Z,2.80
2022-09-06T22:14:05.156Z,3.00
2022-09-06T22:16:35.237Z,3.13
2022-09-06T22:19:04.770Z,2.50
2022-09-06T22:21:32.865Z,3.10
2022-09-06T22:24:03.413Z,3.00
2022-09-06T22:26:32.624Z,2.53
2022-09-06T22:29:04.435Z,2.93
2022-09-06T22:31:33.070Z,3.00
2022-09-06T22:34:00.511Z,2.47
2022-09-06T22:36:28.392Z,2.57
2022-09-06T22:38:58.862Z,2.43
2022-09-06T22:41:28.300Z,2.47
2022-09-06T22:43:56.007Z,2.60
2022-09-06T22:46:23.488Z,2.80
2022-09-06T22:48:50.574Z,3.17
2022-09-06T22:51:17.648Z,2.33
2022-09-06T22:53:44.827Z,2.57
2022-09-06T22:56:11.823Z,2.60
2022-09-06T22:58:38.721Z,2.67
2022-09-06T23:01:11.895Z,2.53
2022-09-06T23:03:39.075Z,2.23
2022-09-06T23:06:06.257Z,2.57
2022-09-06T23:08:36.021Z,2.67
2022-09-06T23:11:12.812Z,2.87
2022-09-06T23:13:43.986Z,2.70
2022-09-06T23:16:15.184Z,2.70
2022-09-06T23:18:42.757Z,3.07
2022-09-06T23:21:21.204Z,2.83
2022-09-06T23:23:50.946Z,3.50
2022-09-06T23:26:30.726Z,3.07
2022-09-06T23:28:58.562Z,2.20
2022-09-06T23:31:31.250Z,2.87
2022-09-06T23:34:00.572Z,2.87
2022-09-06T23:36:28.382Z,2.80
2022-09-06T23:38:56.337Z,3.00
2022-09-06T23:41:24.268Z,2.73
2022-09-06T23:43:51.114Z,2.83
2022-09-06T23:46:18.314Z,3.40
2022-09-06T23:48:45.683Z,2.80
2022-09-06T23:51:13.399Z,2.87
2022-09-06T23:53:40.469Z,3.20
2022-09-06T23:56:08.191Z,2.77
2022-09-06T23:58:36.031Z,2.67
